Anaheim, California
Current Conditions -  °F | °C
As of 5:53 AM on Saturday 22 Nov 2014 (Local Time) from KFUL Reporting Station
Clear Clear  
Wind Chill: 53°   Ceiling: Unl
Heat Index: 53°   Visibility: 10mi
Dew Point: 46°   Wind: 3mph
Humidity: 77%   Direction: 80°E
Pressure: 30.07"   Gusts: NA
Location:  33.83°N, 117.91°W
Report Text: KFUL 221353Z 08003KT 10SM CLR 12/08 A3007 RMK AO2 SLP180 T01170078
Loading
Personal Weather Stations






























Interactive Weather Map New forecast layout! Learn more

10-Day Weather Forecast

Advertisements
Track Severe Weather on mobile